createdAt,value
2022-12-11T00:04:01.111Z,100642.22
2022-12-11T00:09:02.749Z,100638.25
2022-12-11T00:14:04.149Z,100634.66
2022-12-11T00:19:05.598Z,100643.66
2022-12-11T00:24:07.095Z,100648.09
2022-12-11T00:29:14.291Z,100636.06
2022-12-11T00:34:15.707Z,100642.47
2022-12-11T00:39:17.107Z,100635.63
2022-12-11T00:44:18.796Z,100633.31
2022-12-11T00:49:20.109Z,100630.41
2022-12-11T00:54:21.495Z,100636.59
2022-12-11T00:59:22.834Z,100633.66
2022-12-11T01:04:24.607Z,100624.34
2022-12-11T01:09:44.881Z,100635.06
2022-12-11T01:14:46.253Z,100630.16
2022-12-11T01:19:47.702Z,100633.44
2022-12-11T01:24:49.051Z,100625.75
2022-12-11T01:29:50.454Z,100628.78
2022-12-11T01:34:51.863Z,100631.91
2022-12-11T01:39:53.258Z,100620.63
2022-12-11T01:45:13.295Z,100619.56
2022-12-11T01:50:15.274Z,100632.75
2022-12-11T01:55:18.216Z,100622.25
2022-12-11T02:00:20.723Z,100619.44
2022-12-11T02:05:22.029Z,100616.31
2022-12-11T02:10:28.255Z,100613.63
2022-12-11T02:15:29.579Z,100613.84
2022-12-11T02:20:37.232Z,100618.75
2022-12-11T02:25:47.651Z,100616.41
2022-12-11T02:30:55.753Z,100615.25
2022-12-11T02:35:57.134Z,100618.50
2022-12-11T02:41:00.454Z,100606.41
2022-12-11T02:46:03.484Z,100611.97
2022-12-11T02:51:06.161Z,100609.41
2022-12-11T02:56:12.489Z,100599.88
2022-12-11T03:01:14.000Z,100599.63
2022-12-11T03:06:18.289Z,100593.00
2022-12-11T03:11:19.619Z,100595.06
2022-12-11T03:16:37.701Z,100595.66
2022-12-11T03:21:48.109Z,100601.28
2022-12-11T03:27:00.785Z,100607.31
2022-12-11T03:32:12.174Z,100601.97
2022-12-11T03:37:14.429Z,100594.25
2022-12-11T03:42:16.973Z,100600.44
2022-12-11T03:47:20.504Z,100599.41
2022-12-11T03:52:22.898Z,100600.78
2022-12-11T03:57:27.126Z,100594.25
2022-12-11T04:02:28.448Z,100597.53
2022-12-11T04:07:31.249Z,100598.78
2022-12-11T04:12:32.595Z,100598.44
2022-12-11T04:17:54.409Z,100587.75
2022-12-11T04:23:14.280Z,100585.06
2022-12-11T04:28:15.734Z,100581.59
2022-12-11T04:33:17.115Z,100588.56
2022-12-11T04:38:18.430Z,100597.31
2022-12-11T04:43:19.740Z,100588.69
2022-12-11T04:48:21.055Z,100584.13
2022-12-11T04:53:22.442Z,100587.88
2022-12-11T04:58:24.284Z,100572.28
2022-12-11T05:03:25.586Z,100572.28
2022-12-11T05:08:27.022Z,100573.78
2022-12-11T05:13:29.138Z,100569.09
2022-12-11T05:18:30.536Z,100560.84
2022-12-11T05:23:31.899Z,100559.94
2022-12-11T05:28:34.756Z,100560.50
2022-12-11T05:33:36.166Z,100561.88
2022-12-11T05:38:37.473Z,100566.53
2022-12-11T05:43:38.905Z,100566.97
2022-12-11T05:48:40.950Z,100564.63
2022-12-11T05:53:43.529Z,100560.00
2022-12-11T05:58:45.478Z,100560.09
2022-12-11T06:03:46.841Z,100555.53
2022-12-11T06:08:55.403Z,100556.84
2022-12-11T06:13:56.936Z,100542.03
2022-12-11T06:18:58.848Z,100550.69
2022-12-11T06:24:02.173Z,100534.59
2022-12-11T06:29:07.580Z,100527.00
2022-12-11T06:34:12.703Z,100529.31
2022-12-11T06:39:14.082Z,100534.91
2022-12-11T06:44:15.502Z,100533.41
2022-12-11T06:49:16.874Z,100542.16
2022-12-11T06:54:18.189Z,100542.72
2022-12-11T06:59:19.780Z,100543.22
2022-12-11T07:04:24.642Z,100543.56
2022-12-11T07:09:25.980Z,100545.31
2022-12-11T07:14:27.286Z,100546.13
2022-12-11T07:19:28.759Z,100548.47
2022-12-11T07:24:30.070Z,100543.69
2022-12-11T07:29:31.397Z,100560.94
2022-12-11T07:34:32.736Z,100545.22
2022-12-11T07:39:34.240Z,100543.56
2022-12-11T07:44:35.614Z,100542.66
2022-12-11T07:49:36.946Z,100551.97
2022-12-11T07:54:38.377Z,100557.91
2022-12-11T07:59:39.702Z,100560.00
2022-12-11T08:04:41.041Z,100565.78
2022-12-11T08:09:42.390Z,100551.31
2022-12-11T08:14:43.730Z,100547.81
2022-12-11T08:19:45.049Z,100546.50
2022-12-11T08:24:47.109Z,100551.97
2022-12-11T08:29:48.630Z,100546.25
2022-12-11T08:34:50.966Z,100538.34
2022-12-11T08:39:52.291Z,100538.53
2022-12-11T08:44:53.662Z,100540.03
2022-12-11T08:49:54.975Z,100545.13
2022-12-11T08:54:56.286Z,100556.19
2022-12-11T08:59:57.726Z,100543.44
2022-12-11T09:04:59.142Z,100557.91
2022-12-11T09:10:01.016Z,100547.78
2022-12-11T09:15:02.551Z,100560.84
2022-12-11T09:20:04.174Z,100555.00
2022-12-11T09:25:05.794Z,100545.56
2022-12-11T09:30:07.954Z,100559.78
2022-12-11T09:35:09.679Z,100558.19
2022-12-11T09:40:12.036Z,100553.09
2022-12-11T09:45:15.292Z,100537.16
2022-12-11T09:50:42.896Z,100529.59
2022-12-11T09:55:51.454Z,100529.66
2022-12-11T10:00:52.749Z,100535.50
2022-12-11T10:06:17.646Z,100536.06
2022-12-11T10:11:38.790Z,100524.56
2022-12-11T10:16:51.455Z,100537.16
2022-12-11T10:21:53.156Z,100524.16
2022-12-11T10:26:56.149Z,100517.66
2022-12-11T10:31:58.483Z,100505.34
2022-12-11T10:37:00.655Z,100498.78
2022-12-11T10:42:12.664Z,100490.53
2022-12-11T10:47:14.917Z,100486.44
2022-12-11T10:52:24.024Z,100495.94
2022-12-11T10:57:29.772Z,100485.66
2022-12-11T11:02:34.317Z,100477.28
2022-12-11T11:07:35.760Z,100477.78
2022-12-11T11:12:41.729Z,100475.09
2022-12-11T11:17:54.467Z,100469.00
2022-12-11T11:22:57.578Z,100476.16
2022-12-11T11:28:03.738Z,100453.53
2022-12-11T11:33:25.450Z,100452.47
2022-12-11T11:38:29.367Z,100449.53
2022-12-11T11:43:42.542Z,100453.09
2022-12-11T11:48:43.834Z,100445.56
2022-12-11T11:53:48.376Z,100442.81
2022-12-11T11:59:13.071Z,100444.88
2022-12-11T12:04:14.571Z,100445.63
2022-12-11T12:09:30.883Z,100434.31
2022-12-11T12:14:52.116Z,100431.97
2022-12-11T12:20:26.138Z,100420.97
2022-12-11T12:25:30.217Z,100416.53
2022-12-11T12:30:35.711Z,100409.34
2022-12-11T12:35:38.366Z,100417.47
2022-12-11T12:40:58.204Z,100424.81
2022-12-11T12:46:18.414Z,100414.13
2022-12-11T12:51:20.086Z,100426.19
2022-12-11T12:56:21.825Z,100424.44
2022-12-11T13:01:25.441Z,100419.44
2022-12-11T13:06:35.718Z,100419.06
2022-12-11T13:11:37.032Z,100425.28
2022-12-11T13:16:40.189Z,100428.84
2022-12-11T13:21:41.707Z,100422.59
2022-12-11T13:26:43.453Z,100419.38
2022-12-11T13:31:45.578Z,100417.59
2022-12-11T13:36:51.734Z,100422.97
2022-12-11T13:41:59.481Z,100423.97
2022-12-11T13:47:03.220Z,100432.97
2022-12-11T13:52:04.927Z,100444.00
2022-12-11T13:57:06.209Z,100426.94
2022-12-11T14:02:17.885Z,100438.22
2022-12-11T14:07:23.653Z,100437.44
2022-12-11T14:12:25.016Z,100432.75
2022-12-11T14:17:31.487Z,100434.72
2022-12-11T14:22:32.807Z,100433.66
2022-12-11T14:27:34.133Z,100435.81
2022-12-11T14:32:38.291Z,100432.31
2022-12-11T14:37:39.810Z,100432.44
2022-12-11T14:42:43.977Z,100433.66
2022-12-11T14:47:45.425Z,100438.41
2022-12-11T14:52:48.658Z,100440.84
2022-12-11T14:57:51.064Z,100442.47
2022-12-11T15:02:59.642Z,100448.44
2022-12-11T15:08:02.779Z,100445.44
2022-12-11T15:13:05.840Z,100448.97
2022-12-11T15:18:13.338Z,100450.19
2022-12-11T15:23:18.663Z,100439.63
2022-12-11T15:28:30.964Z,100443.81
2022-12-11T15:33:34.563Z,100454.38
2022-12-11T15:38:39.463Z,100449.38
2022-12-11T15:43:41.155Z,100454.63
2022-12-11T15:48:42.682Z,100460.47
2022-12-11T15:53:44.028Z,100454.78
2022-12-11T15:58:47.078Z,100459.09
2022-12-11T16:03:50.289Z,100450.47
2022-12-11T16:08:51.632Z,100462.06
2022-12-11T16:13:52.934Z,100461.53
2022-12-11T16:18:54.302Z,100462.91
2022-12-11T16:23:55.617Z,100463.28
2022-12-11T16:28:56.996Z,100468.56
2022-12-11T16:33:58.389Z,100462.50
2022-12-11T16:38:59.706Z,100462.22
2022-12-11T16:44:01.849Z,100460.75
2022-12-11T16:49:03.958Z,100455.72
2022-12-11T16:54:05.294Z,100458.56
2022-12-11T16:59:06.748Z,100451.38
2022-12-11T17:04:08.200Z,100448.53
2022-12-11T17:09:09.562Z,100452.47
2022-12-11T17:14:12.497Z,100455.97
2022-12-11T17:19:14.229Z,100455.31
2022-12-11T17:24:15.920Z,100451.94
2022-12-11T17:29:17.478Z,100443.81
2022-12-11T17:34:18.883Z,100443.94
2022-12-11T17:39:20.226Z,100449.88
2022-12-11T17:44:21.549Z,100442.84
2022-12-11T17:49:23.022Z,100441.91
2022-12-11T17:54:24.407Z,100440.94
2022-12-11T17:59:25.746Z,100453.13
2022-12-11T18:04:27.132Z,100455.81
2022-12-11T18:09:28.473Z,100442.56
2022-12-11T18:14:29.861Z,100449.34
2022-12-11T18:19:31.925Z,100456.78
2022-12-11T18:24:33.302Z,100456.38
2022-12-11T18:29:34.779Z,100456.38
2022-12-11T18:34:36.089Z,100456.38
2022-12-11T18:39:37.397Z,100461.09
2022-12-11T18:44:38.806Z,100452.56
2022-12-11T18:49:40.209Z,100458.81
2022-12-11T18:54:41.868Z,100450.69
2022-12-11T18:59:43.233Z,100451.22
2022-12-11T19:04:44.561Z,100451.34
2022-12-11T19:09:48.311Z,100451.22
2022-12-11T19:14:49.952Z,100457.41
2022-12-11T19:19:51.327Z,100453.91
2022-12-11T19:24:52.641Z,100456.88
2022-12-11T19:29:54.075Z,100450.88
2022-12-11T19:34:55.557Z,100451.44
2022-12-11T19:39:56.869Z,100450.00
2022-12-11T19:44:58.207Z,100449.16
2022-12-11T19:49:59.526Z,100457.47
2022-12-11T19:55:01.899Z,100448.34
2022-12-11T20:00:04.148Z,100443.94
2022-12-11T20:05:05.723Z,100443.81
2022-12-11T20:10:07.488Z,100453.50
2022-12-11T20:15:09.188Z,100450.31
2022-12-11T20:20:10.769Z,100455.28
2022-12-11T20:25:12.442Z,100458.16
2022-12-11T20:30:14.298Z,100463.63
2022-12-11T20:35:15.644Z,100471.47
2022-12-11T20:40:17.056Z,100467.41
2022-12-11T20:45:18.407Z,100461.25
2022-12-11T20:50:19.708Z,100465.09
2022-12-11T20:55:21.020Z,100456.00
2022-12-11T21:00:22.385Z,100448.06
2022-12-11T21:05:23.821Z,100456.03
2022-12-11T21:10:25.201Z,100461.91
2022-12-11T21:15:26.591Z,100454.31
2022-12-11T21:20:27.921Z,100459.81
2022-12-11T21:25:29.307Z,100466.72
2022-12-11T21:30:30.682Z,100460.16
2022-12-11T21:35:32.001Z,100468.97
2022-12-11T21:40:33.406Z,100475.63
2022-12-11T21:46:00.593Z,100472.81
2022-12-11T21:51:04.197Z,100475.47
2022-12-11T21:56:09.884Z,100466.41
2022-12-11T22:01:14.120Z,100473.22
2022-12-11T22:06:15.467Z,100478.25
2022-12-11T22:11:20.735Z,100470.22
2022-12-11T22:16:22.227Z,100479.19
2022-12-11T22:21:24.319Z,100489.22
2022-12-11T22:26:26.581Z,100485.22
2022-12-11T22:31:28.165Z,100491.47
2022-12-11T22:36:29.556Z,100490.09
2022-12-11T22:41:33.756Z,100506.16
2022-12-11T22:46:35.197Z,100507.56
2022-12-11T22:51:36.723Z,100501.75
2022-12-11T22:56:38.227Z,100502.44
2022-12-11T23:01:39.631Z,100508.72
2022-12-11T23:06:40.967Z,100504.09
2022-12-11T23:11:42.351Z,100501.03
2022-12-11T23:16:44.231Z,100506.38
2022-12-11T23:21:45.724Z,100505.66
2022-12-11T23:26:48.093Z,100509.91
2022-12-11T23:31:49.469Z,100504.69
2022-12-11T23:36:50.792Z,100497.41
2022-12-11T23:41:53.986Z,100495.09
2022-12-11T23:46:55.336Z,100498.88
2022-12-11T23:51:56.765Z,100505.66
2022-12-11T23:56:58.098Z,100505.34
